createdAt,value
2018-08-16T00:00:44.968Z,16.20
2018-08-16T00:05:28.852Z,16.30
2018-08-16T00:10:14.532Z,16.20
2018-08-16T00:14:58.244Z,16.10
2018-08-16T00:19:42.102Z,16.10
2018-08-16T00:24:25.788Z,16.10
2018-08-16T00:29:09.429Z,16.00
2018-08-16T00:33:53.089Z,16.00
2018-08-16T00:38:36.803Z,15.90
2018-08-16T00:43:20.466Z,15.90
2018-08-16T00:48:04.212Z,15.90
2018-08-16T00:52:47.878Z,16.00
2018-08-16T00:57:31.541Z,15.90
2018-08-16T01:02:15.149Z,15.80
2018-08-16T01:06:58.876Z,15.60
2018-08-16T01:11:42.632Z,15.40
2018-08-16T01:16:26.348Z,15.30
2018-08-16T01:21:10.045Z,15.30
2018-08-16T01:25:53.825Z,15.10
2018-08-16T01:30:37.580Z,15.00
2018-08-16T01:35:21.218Z,15.10
2018-08-16T01:40:05.952Z,15.10
2018-08-16T01:44:49.660Z,15.30
2018-08-16T01:49:34.655Z,15.20
2018-08-16T01:54:18.366Z,15.20
2018-08-16T01:59:01.965Z,15.20
2018-08-16T02:03:45.696Z,15.10
2018-08-16T02:08:29.368Z,15.10
2018-08-16T02:13:12.972Z,15.10
2018-08-16T02:17:56.563Z,15.10
2018-08-16T02:22:40.536Z,15.20
2018-08-16T02:27:24.223Z,15.10
2018-08-16T02:32:07.929Z,15.00
2018-08-16T02:36:51.712Z,15.10
2018-08-16T02:41:35.758Z,15.20
2018-08-16T02:46:19.517Z,15.40
2018-08-16T02:51:03.252Z,15.50
2018-08-16T02:55:46.994Z,15.60
2018-08-16T03:00:30.621Z,15.70
2018-08-16T03:05:14.285Z,15.60
2018-08-16T03:09:57.924Z,15.70
2018-08-16T03:14:41.930Z,15.80
2018-08-16T03:19:25.627Z,15.80
2018-08-16T03:24:09.312Z,15.80
2018-08-16T03:28:52.962Z,15.70
2018-08-16T03:33:36.868Z,15.70
2018-08-16T03:38:20.566Z,15.70
2018-08-16T03:43:04.180Z,15.80
2018-08-16T03:47:47.868Z,15.80
2018-08-16T03:52:31.612Z,15.90
2018-08-16T03:57:15.289Z,16.00
2018-08-16T04:01:59.026Z,16.20
2018-08-16T04:06:42.899Z,16.30
2018-08-16T04:11:26.580Z,16.30
2018-08-16T04:16:10.216Z,16.40
2018-08-16T04:20:53.848Z,16.50
2018-08-16T04:25:37.656Z,16.60
2018-08-16T04:30:21.298Z,16.70
2018-08-16T04:35:05.272Z,16.70
2018-08-16T04:39:48.978Z,16.80
2018-08-16T04:44:32.664Z,16.80
2018-08-16T04:49:16.484Z,16.80
2018-08-16T04:54:00.238Z,16.90
2018-08-16T04:58:44.876Z,16.90
2018-08-16T05:03:28.823Z,16.90
2018-08-16T05:08:12.553Z,17.10
2018-08-16T05:12:56.287Z,17.10
2018-08-16T05:17:40.008Z,17.20
2018-08-16T05:22:25.384Z,17.30
2018-08-16T05:27:09.173Z,17.50
2018-08-16T05:31:52.774Z,17.70
2018-08-16T05:36:36.491Z,18.00
2018-08-16T05:41:20.440Z,18.40
2018-08-16T05:46:04.221Z,18.70
2018-08-16T05:50:47.949Z,19.10
2018-08-16T05:55:31.736Z,19.50
2018-08-16T06:00:15.498Z,19.80
2018-08-16T06:04:59.131Z,20.10
2018-08-16T06:09:42.922Z,20.60
2018-08-16T06:14:26.626Z,21.10
2018-08-16T06:19:11.198Z,21.40
2018-08-16T06:23:55.012Z,21.70
2018-08-16T06:28:38.742Z,22.10
2018-08-16T06:33:22.464Z,22.50
2018-08-16T06:38:06.375Z,22.90
2018-08-16T06:42:50.083Z,23.30
2018-08-16T06:47:33.880Z,23.70
2018-08-16T06:52:17.602Z,24.10
2018-08-16T06:57:01.233Z,24.40
2018-08-16T07:01:44.942Z,24.40
2018-08-16T07:06:28.770Z,24.60
2018-08-16T07:11:12.583Z,24.90
2018-08-16T07:15:56.460Z,24.90
2018-08-16T07:20:40.213Z,25.10
2018-08-16T07:25:24.167Z,25.30
2018-08-16T07:30:09.558Z,25.70
2018-08-16T07:34:53.253Z,25.90
2018-08-16T07:39:36.981Z,26.10
2018-08-16T07:44:20.678Z,26.40
2018-08-16T07:49:04.461Z,26.40
2018-08-16T07:53:48.140Z,26.50
2018-08-16T07:58:31.863Z,26.60
2018-08-16T08:03:15.594Z,27.10
2018-08-16T08:07:59.302Z,27.10
2018-08-16T08:12:43.023Z,27.40
2018-08-16T08:17:26.747Z,27.70
2018-08-16T08:22:10.525Z,27.80
2018-08-16T08:26:54.202Z,27.80
2018-08-16T08:31:38.051Z,28.20
2018-08-16T08:36:32.833Z,28.60
2018-08-16T08:41:16.642Z,28.70
2018-08-16T08:46:00.369Z,29.10
2018-08-16T08:50:44.191Z,29.50
2018-08-16T08:55:38.927Z,29.50
2018-08-16T09:00:22.810Z,29.70
2018-08-16T09:05:06.916Z,29.80
2018-08-16T09:11:19.796Z,29.90
2018-08-16T09:16:07.117Z,30.30
2018-08-16T09:20:50.823Z,30.50
2018-08-16T09:25:34.756Z,30.80
2018-08-16T09:30:29.589Z,31.20
2018-08-16T09:35:13.294Z,31.20
2018-08-16T09:39:57.187Z,31.50
2018-08-16T09:44:40.913Z,32.00
2018-08-16T09:49:24.827Z,32.00
2018-08-16T09:54:09.011Z,32.30
2018-08-16T09:58:52.699Z,32.40
2018-08-16T10:03:36.331Z,32.70
2018-08-16T10:08:20.011Z,32.60
2018-08-16T10:13:08.622Z,33.10
2018-08-16T10:17:52.561Z,33.20
2018-08-16T10:22:36.285Z,32.90
2018-08-16T10:27:20.154Z,33.10
2018-08-16T10:32:03.911Z,33.10
2018-08-16T10:36:47.723Z,33.10
2018-08-16T10:41:31.614Z,33.10
2018-08-16T10:46:15.326Z,33.20
2018-08-16T10:50:59.188Z,33.20
2018-08-16T10:55:43.108Z,33.50
2018-08-16T11:00:27.001Z,34.30
2018-08-16T11:05:10.705Z,34.50
2018-08-16T11:09:54.473Z,34.30
2018-08-16T11:14:38.171Z,34.20
2018-08-16T11:19:21.862Z,34.10
2018-08-16T11:24:06.339Z,34.20
2018-08-16T11:28:50.041Z,34.20
2018-08-16T11:33:33.707Z,34.20
2018-08-16T11:38:17.397Z,34.30
2018-08-16T11:43:01.416Z,34.80
2018-08-16T11:47:45.060Z,35.00
2018-08-16T11:52:28.815Z,35.00
2018-08-16T11:57:12.555Z,34.90
2018-08-16T12:01:56.364Z,34.80
2018-08-16T12:06:41.355Z,35.00
2018-08-16T12:11:25.043Z,35.10
2018-08-16T12:16:08.873Z,34.60
2018-08-16T12:20:52.695Z,34.50
2018-08-16T12:25:36.344Z,34.40
2018-08-16T12:30:20.084Z,33.80
2018-08-16T12:35:03.915Z,33.50
2018-08-16T12:39:47.809Z,34.10
2018-08-16T12:44:31.556Z,34.50
2018-08-16T12:49:15.205Z,34.70
2018-08-16T12:53:58.790Z,35.00
2018-08-16T12:58:42.779Z,35.10
2018-08-16T13:03:27.758Z,35.20
2018-08-16T13:08:11.518Z,35.20
2018-08-16T13:12:55.789Z,35.20
2018-08-16T13:17:40.264Z,35.10
2018-08-16T13:22:23.981Z,35.10
2018-08-16T13:27:08.048Z,35.00
2018-08-16T13:31:51.696Z,35.20
2018-08-16T13:36:35.542Z,34.80
2018-08-16T13:41:21.445Z,34.60
2018-08-16T13:46:03.639Z,34.80
2018-08-16T13:50:47.385Z,34.70
2018-08-16T13:55:31.165Z,34.70
2018-08-16T14:00:14.880Z,35.10
2018-08-16T14:04:58.653Z,34.60
2018-08-16T14:09:42.432Z,34.70
2018-08-16T14:14:26.352Z,34.90
2018-08-16T14:19:10.019Z,34.50
2018-08-16T14:23:53.899Z,34.70
2018-08-16T14:28:37.660Z,34.80
2018-08-16T14:33:21.480Z,34.80
2018-08-16T14:38:05.146Z,34.50
2018-08-16T14:42:48.983Z,34.30
2018-08-16T14:47:32.687Z,34.30
2018-08-16T14:52:16.469Z,34.40
2018-08-16T14:57:00.007Z,34.70
2018-08-16T15:01:44.292Z,34.80
2018-08-16T15:06:28.064Z,34.30
2018-08-16T15:11:11.863Z,33.90
2018-08-16T15:15:55.737Z,33.80
2018-08-16T15:20:40.532Z,34.00
2018-08-16T15:25:24.292Z,34.20
2018-08-16T15:30:08.818Z,34.20
2018-08-16T15:34:54.036Z,34.00
2018-08-16T15:39:38.231Z,34.00
2018-08-16T15:44:22.943Z,33.90
2018-08-16T15:49:06.680Z,33.70
2018-08-16T15:53:50.525Z,34.00
2018-08-16T15:58:34.412Z,34.00
2018-08-16T16:08:08.821Z,34.40
2018-08-16T16:12:53.336Z,34.60
2018-08-16T16:17:37.240Z,34.70
2018-08-16T16:27:10.258Z,35.10
2018-08-16T16:31:54.112Z,35.40
2018-08-16T16:36:37.907Z,35.20
2018-08-16T16:41:21.603Z,35.30
2018-08-16T16:46:05.463Z,35.10
2018-08-16T16:50:49.257Z,34.90
2018-08-16T16:55:33.027Z,34.60
2018-08-16T17:00:16.906Z,34.60
2018-08-16T17:05:00.739Z,34.60
2018-08-16T17:09:44.477Z,34.70
2018-08-16T17:14:28.137Z,34.30
2018-08-16T17:19:11.874Z,34.20
2018-08-16T17:23:55.577Z,33.90
2018-08-16T17:28:39.304Z,33.60
2018-08-16T17:33:23.196Z,32.70
2018-08-16T17:38:07.043Z,31.40
2018-08-16T17:42:50.858Z,30.00
2018-08-16T17:47:34.521Z,28.90
2018-08-16T17:52:18.419Z,28.20
2018-08-16T17:57:02.556Z,27.80
2018-08-16T18:01:46.327Z,27.40
2018-08-16T18:06:29.998Z,27.00
2018-08-16T18:11:14.541Z,26.50
2018-08-16T18:16:00.767Z,26.20
2018-08-16T18:20:47.402Z,25.90
2018-08-16T18:25:33.026Z,25.50
2018-08-16T18:30:19.294Z,25.30
2018-08-16T18:35:04.583Z,25.10
2018-08-16T18:39:48.917Z,24.90
2018-08-16T18:44:32.967Z,24.70
2018-08-16T18:49:17.171Z,24.70
2018-08-16T18:54:01.976Z,24.50
2018-08-16T18:58:46.615Z,24.30
2018-08-16T19:03:32.979Z,24.20
2018-08-16T19:08:18.303Z,24.00
2018-08-16T19:13:03.539Z,24.00
2018-08-16T19:17:47.947Z,24.10
2018-08-16T19:22:32.726Z,24.00
2018-08-16T19:27:17.013Z,23.90
2018-08-16T19:32:01.448Z,23.70
2018-08-16T19:36:45.614Z,23.60
2018-08-16T19:41:30.096Z,23.60
2018-08-16T19:46:14.268Z,23.30
2018-08-16T19:50:58.401Z,23.10
2018-08-16T19:55:42.762Z,23.10
2018-08-16T20:00:26.850Z,22.90
2018-08-16T20:05:11.134Z,22.70
2018-08-16T20:09:55.283Z,22.50
2018-08-16T20:14:39.520Z,22.60
2018-08-16T20:19:23.792Z,22.40
2018-08-16T20:24:15.286Z,22.30
2018-08-16T20:28:59.475Z,22.20
2018-08-16T20:33:43.902Z,22.20
2018-08-16T20:38:29.056Z,22.10
2018-08-16T20:43:13.158Z,22.00
2018-08-16T20:47:57.079Z,22.00
2018-08-16T20:52:41.147Z,21.90
2018-08-16T20:57:25.267Z,21.70
2018-08-16T21:02:09.564Z,21.70
2018-08-16T21:06:53.610Z,21.80
2018-08-16T21:11:37.914Z,21.80
2018-08-16T21:16:21.949Z,21.70
2018-08-16T21:21:06.349Z,21.60
2018-08-16T21:25:50.348Z,21.70
2018-08-16T21:30:34.901Z,21.70
2018-08-16T21:35:19.050Z,21.60
2018-08-16T21:40:03.833Z,21.50
2018-08-16T21:44:47.982Z,21.30
2018-08-16T21:49:32.232Z,21.10
2018-08-16T21:54:16.130Z,20.90
2018-08-16T21:59:00.178Z,20.50
2018-08-16T22:03:43.936Z,20.10
2018-08-16T22:08:30.109Z,19.70
2018-08-16T22:13:13.694Z,19.50
2018-08-16T22:17:58.935Z,19.30
2018-08-16T22:22:42.562Z,18.90
2018-08-16T22:27:26.270Z,18.80
2018-08-16T22:32:09.982Z,18.80
2018-08-16T22:36:53.640Z,18.70
2018-08-16T22:41:37.342Z,18.50
2018-08-16T22:46:21.056Z,18.30
2018-08-16T22:51:04.744Z,18.20
2018-08-16T22:55:48.427Z,18.00
2018-08-16T23:00:32.253Z,17.90
2018-08-16T23:05:16.155Z,17.70
2018-08-16T23:09:59.700Z,17.60
2018-08-16T23:14:43.462Z,17.50
2018-08-16T23:19:27.121Z,17.40
2018-08-16T23:24:10.750Z,17.40
2018-08-16T23:28:54.512Z,17.40
2018-08-16T23:33:38.222Z,17.30
2018-08-16T23:38:21.948Z,17.30
2018-08-16T23:43:05.600Z,17.20
2018-08-16T23:48:00.334Z,17.20
2018-08-16T23:52:44.020Z,17.20
2018-08-16T23:57:27.812Z,17.20
